Time;durP1;ratioP1;P1;durP2;ratioP2;P2;SDS_P1;SDS_P2;PMS_P1;PMS_P2;Temp;Humidity;BMP_temperature;BMP_pressure;BME280_temperature;BME280_humidity;BME280_pressure;Samples;Min_cycle;Max_cycle;Signal;HPM_P1;HPM_P2
2023/07/12 00:01:10;;;;;;;12.70;4.97;;;;;;;27.05;45.13;101061.84;6304143;22;20370;-77
2023/07/12 00:03:36;;;;;;;14.50;5.05;;;;;;;27.02;44.94;101065.91;6304146;22;20840;-76
2023/07/12 00:06:01;;;;;;;11.25;5.22;;;;;;;26.97;45.09;101070.53;6304529;22;20345;-76
2023/07/12 00:08:28;;;;;;;14.80;4.80;;;;;;;26.90;45.38;101059.91;6304056;22;20438;-76
2023/07/12 00:10:56;;;;;;;13.23;4.95;;;;;;;26.94;45.07;101055.59;6276611;22;20353;-76
2023/07/12 00:13:26;;;;;;;11.65;5.07;;;;;;;26.96;45.33;101050.69;6304405;22;20421;-75
2023/07/12 00:15:53;;;;;;;10.52;4.60;;;;;;;26.92;45.42;101054.22;6304141;22;20330;-77
2023/07/12 00:18:21;;;;;;;11.95;5.20;;;;;;;26.92;45.37;101055.06;6304220;22;20427;-76
2023/07/12 00:20:49;;;;;;;11.40;4.90;;;;;;;26.98;45.19;101056.66;6304091;22;20403;-77
2023/07/12 00:23:16;;;;;;;12.68;5.55;;;;;;;27.03;44.93;101059.41;6303917;22;20818;-76
2023/07/12 00:25:43;;;;;;;13.60;5.30;;;;;;;26.93;45.24;101067.56;6303377;22;20595;-75
2023/07/12 00:28:29;;;;;;;13.30;5.20;;;;;;;26.95;45.33;101062.66;6304007;22;20492;-76
2023/07/12 00:30:56;;;;;;;12.55;5.10;;;;;;;27.04;45.07;101065.66;6303068;22;20349;-76
2023/07/12 00:33:22;;;;;;;12.93;5.20;;;;;;;26.97;45.27;101068.63;6303967;22;20342;-76
2023/07/12 00:35:49;;;;;;;9.90;4.90;;;;;;;26.85;45.56;101074.34;6304267;22;20334;-76
2023/07/12 00:38:23;;;;;;;17.77;5.13;;;;;;;26.84;45.47;101078.16;6303753;22;20330;-76
2023/07/12 00:40:58;;;;;;;13.70;5.20;;;;;;;26.65;45.84;101075.16;6303476;22;20337;-75
2023/07/12 00:43:44;;;;;;;11.38;5.30;;;;;;;26.70;45.75;101069.72;6276851;22;20373;-76
2023/07/12 00:46:18;;;;;;;11.85;5.20;;;;;;;26.60;46.13;101064.22;6303913;22;20337;-76
2023/07/12 00:48:47;;;;;;;11.30;5.05;;;;;;;26.51;46.34;101065.84;6303847;22;20338;-76
2023/07/12 00:51:38;;;;;;;11.50;5.00;;;;;;;26.42;46.51;101062.81;6303942;22;20421;-76
2023/07/12 00:54:15;;;;;;;12.05;5.28;;;;;;;26.38;46.78;101069.88;6303852;22;20322;-75
2023/07/12 00:56:41;;;;;;;15.30;5.65;;;;;;;26.31;46.96;101064.69;6304475;22;20362;-75
2023/07/12 00:59:18;;;;;;;14.85;5.20;;;;;;;26.18;47.60;101069.81;6303834;22;20353;-76
2023/07/12 01:01:45;;;;;;;11.90;5.07;;;;;;;26.07;47.89;101075.22;6303748;22;20482;-76
2023/07/12 01:04:17;;;;;;;11.43;5.27;;;;;;;25.92;48.34;101078.63;6303840;22;20376;-75
2023/07/12 01:06:43;;;;;;;10.20;4.90;;;;;;;25.84;48.50;101073.72;6304014;22;20330;-76
2023/07/12 01:09:13;;;;;;;8.98;4.80;;;;;;;25.81;48.51;101068.78;6303637;22;20353;-76
2023/07/12 01:11:40;;;;;;;10.55;5.10;;;;;;;25.85;48.63;101074.50;6303970;22;20407;-76
2023/07/12 01:14:10;;;;;;;10.93;5.00;;;;;;;25.83;48.48;101069.34;6304230;22;20437;-76
2023/07/12 01:16:38;;;;;;;8.55;5.00;;;;;;;25.78;48.69;101068.50;6303981;22;20366;-75
2023/07/12 01:19:03;;;;;;;11.20;5.15;;;;;;;25.70;49.00;101067.09;6277454;22;20353;-76
2023/07/12 01:21:32;;;;;;;9.50;5.07;;;;;;;25.63;49.06;101067.34;6303868;22;20362;-76
2023/07/12 01:23:57;;;;;;;11.98;5.43;;;;;;;25.60;49.27;101073.28;6276343;22;20361;-76
2023/07/12 01:26:25;;;;;;;10.73;4.90;;;;;;;25.59;49.03;101058.09;6303652;22;20326;-77
2023/07/12 01:28:55;;;;;;;10.05;4.95;;;;;;;25.68;48.87;101064.66;6276724;22;20356;-76
2023/07/12 01:31:20;;;;;;;12.45;5.10;;;;;;;25.65;48.84;101053.50;6303609;22;20421;-76
2023/07/12 01:33:46;;;;;;;10.70;4.97;;;;;;;25.69;48.70;101057.31;6303588;22;20366;-76
2023/07/12 01:36:12;;;;;;;9.60;4.73;;;;;;;25.67;48.64;101063.00;6303684;22;20337;-76
2023/07/12 01:38:37;;;;;;;13.52;5.10;;;;;;;25.60;49.00;101056.19;6305131;22;20826;-76
2023/07/12 01:41:03;;;;;;;13.13;5.37;;;;;;;25.59;48.88;101055.38;6305329;22;20338;-75
2023/07/12 01:43:28;;;;;;;12.15;5.43;;;;;;;25.53;49.30;101048.25;6305549;22;20361;-76
2023/07/12 01:45:54;;;;;;;12.23;5.32;;;;;;;25.48;49.45;101064.50;6305539;22;20430;-75
2023/07/12 01:48:19;;;;;;;11.47;5.17;;;;;;;25.34;49.95;101062.25;6305555;22;20375;-75
2023/07/12 01:50:45;;;;;;;11.03;5.43;;;;;;;25.34;49.91;101062.25;6305431;22;20326;-75
2023/07/12 01:53:11;;;;;;;12.48;5.30;;;;;;;25.29;50.01;101058.69;6304968;22;20330;-75
2023/07/12 01:55:36;;;;;;;13.60;5.63;;;;;;;25.25;50.27;101063.00;6305365;22;20326;-75
2023/07/12 01:58:02;;;;;;;11.60;5.40;;;;;;;25.29;50.41;101064.13;6305125;22;20706;-75
2023/07/12 02:00:27;;;;;;;11.90;5.10;;;;;;;25.26;50.26;101064.63;6278305;22;20349;-76
2023/07/12 02:02:53;;;;;;;12.05;5.25;;;;;;;25.27;50.35;101077.13;6305108;22;20369;-76
2023/07/12 02:05:18;;;;;;;10.03;5.17;;;;;;;25.27;50.04;101069.81;6305221;22;20342;-76
2023/07/12 02:07:44;;;;;;;10.73;5.00;;;;;;;25.32;50.12;101079.88;6304828;22;20443;-76
2023/07/12 02:10:14;;;;;;;10.15;4.93;;;;;;;25.21;50.26;101081.66;6305232;22;20334;-76
2023/07/12 02:12:41;;;;;;;11.48;5.22;;;;;;;25.18;50.41;101096.56;6305229;22;20797;-76
2023/07/12 02:15:07;;;;;;;12.10;5.10;;;;;;;25.12;50.62;101103.03;6305249;22;20368;-76
2023/07/12 02:17:32;;;;;;;11.13;4.90;;;;;;;25.05;50.70;101096.16;6305174;22;20444;-76
2023/07/12 02:19:58;;;;;;;10.50;4.87;;;;;;;24.97;51.04;101103.72;6305073;22;20369;-76
2023/07/12 02:22:23;;;;;;;12.20;4.93;;;;;;;24.89;51.39;101108.78;6304641;22;20408;-76
2023/07/12 02:24:50;;;;;;;8.52;4.60;;;;;;;24.83;51.64;101107.06;6305186;22;20345;-76
2023/07/12 02:27:15;;;;;;;11.85;5.40;;;;;;;24.84;51.51;101106.00;6305040;22;20334;-76
2023/07/12 02:29:41;;;;;;;11.00;5.00;;;;;;;24.90;51.37;101104.97;6305077;22;20459;-76
2023/07/12 02:32:07;;;;;;;9.70;4.87;;;;;;;24.84;51.29;101106.81;6305063;22;20789;-76
2023/07/12 02:34:33;;;;;;;9.77;5.10;;;;;;;24.87;51.38;101113.66;6305325;22;20341;-76
2023/07/12 02:36:58;;;;;;;13.57;5.53;;;;;;;24.82;51.36;101100.84;6304506;22;20329;-74
2023/07/12 02:39:23;;;;;;;12.33;5.60;;;;;;;24.91;51.11;101115.56;6304887;22;20338;-76
2023/07/12 02:41:49;;;;;;;12.33;5.40;;;;;;;25.04;50.64;101114.34;6304731;22;20376;-75
2023/07/12 02:44:14;;;;;;;10.60;5.20;;;;;;;24.96;50.97;101103.97;6305134;22;20425;-76
2023/07/12 02:46:40;;;;;;;12.68;5.60;;;;;;;24.84;51.42;101112.25;6305776;22;20333;-75
2023/07/12 02:49:06;;;;;;;10.60;5.00;;;;;;;24.80;51.51;101117.38;6305348;22;20495;-76
2023/07/12 02:51:31;;;;;;;11.47;5.37;;;;;;;24.79;51.93;101114.91;6304758;22;20376;-76
2023/07/12 02:53:57;;;;;;;9.98;4.95;;;;;;;24.71;52.05;101120.78;6304819;22;20778;-76
2023/07/12 02:56:22;;;;;;;12.00;5.53;;;;;;;24.67;52.16;101116.94;6304539;22;20362;-76
2023/07/12 02:58:47;;;;;;;11.93;5.20;;;;;;;24.67;52.10;101117.78;6304736;22;20341;-76
2023/07/12 03:01:13;;;;;;;13.93;5.57;;;;;;;24.68;52.11;101118.59;6304607;22;20369;-76
2023/07/12 03:03:38;;;;;;;10.77;5.20;;;;;;;24.50;52.73;101117.00;6304897;22;20760;-75
2023/07/12 03:06:06;;;;;;;10.40;5.28;;;;;;;24.47;52.86;101120.22;6305055;22;20763;-76
2023/07/12 03:08:32;;;;;;;10.82;5.13;;;;;;;24.51;52.84;101126.78;6305249;22;20755;-76
2023/07/12 03:10:58;;;;;;;15.47;5.70;;;;;;;24.44;52.86;101124.25;6304902;22;20352;-75
2023/07/12 03:13:24;;;;;;;9.07;5.30;;;;;;;24.48;53.05;101128.09;6304784;22;20730;-75
2023/07/12 03:15:49;;;;;;;10.60;5.00;;;;;;;24.37;53.22;101123.63;6305158;22;20796;-76
2023/07/12 03:18:15;;;;;;;12.77;5.25;;;;;;;24.37;53.51;101129.03;6304779;22;20659;-75
2023/07/12 03:20:41;;;;;;;12.43;5.10;;;;;;;24.34;53.47;101133.06;6304288;22;20345;-77
2023/07/12 03:23:06;;;;;;;11.67;5.53;;;;;;;24.31;53.46;101140.88;6304486;22;20472;-76
2023/07/12 03:25:32;;;;;;;9.60;4.90;;;;;;;24.22;53.87;101145.94;6304628;22;20346;-76
2023/07/12 03:27:57;;;;;;;9.60;4.80;;;;;;;24.20;54.01;101145.34;6304603;22;20399;-76
2023/07/12 03:30:23;;;;;;;12.33;5.47;;;;;;;24.23;53.97;101145.66;6304582;22;20329;-77
2023/07/12 03:32:48;;;;;;;12.30;5.67;;;;;;;24.37;53.27;101137.97;6304870;22;20334;-76
2023/07/12 03:35:14;;;;;;;12.13;5.05;;;;;;;24.46;53.08;101141.06;6304314;22;20674;-77
2023/07/12 03:37:39;;;;;;;9.13;5.07;;;;;;;24.47;53.11;101139.19;6305217;22;20338;-76
2023/07/12 03:40:07;;;;;;;10.17;5.10;;;;;;;24.48;53.13;101144.34;6304660;22;20345;-77
2023/07/12 03:42:33;;;;;;;8.05;4.78;;;;;;;24.52;53.05;101148.19;6277438;22;20458;-76
2023/07/12 03:44:58;;;;;;;8.10;4.93;;;;;;;24.59;52.84;101142.59;6304547;22;20349;-76
2023/07/12 03:47:24;;;;;;;12.25;5.30;;;;;;;24.63;52.68;101146.44;6277371;22;20342;-76
2023/07/12 03:49:49;;;;;;;11.80;5.53;;;;;;;24.74;52.40;101141.97;6304669;22;20334;-76
2023/07/12 03:52:15;;;;;;;10.17;5.03;;;;;;;24.75;52.31;101144.41;6304874;22;20334;-76
2023/07/12 03:54:41;;;;;;;9.60;5.10;;;;;;;24.70;52.42;101147.06;6304575;22;20400;-76
2023/07/12 03:57:07;;;;;;;12.27;5.40;;;;;;;24.89;52.02;101142.13;6304470;22;20388;-76
2023/07/12 03:59:33;;;;;;;11.38;5.18;;;;;;;24.93;51.90;101143.25;6304281;22;20613;-76
2023/07/12 04:01:59;;;;;;;8.52;5.10;;;;;;;25.06;51.64;101147.44;6303646;22;20856;-76
2023/07/12 04:04:25;;;;;;;13.77;5.07;;;;;;;25.22;51.35;101147.59;6304064;22;20644;-75
2023/07/12 04:06:50;;;;;;;12.10;5.13;;;;;;;25.29;51.16;101143.63;6303327;22;20828;-76
2023/07/12 04:12:00;;;;;;;11.98;5.30;;;;;;;25.44;50.90;101144.81;6302250;22;20336;-76
2023/07/12 04:14:25;;;;;;;11.57;5.13;;;;;;;25.58;50.63;101151.44;6304359;22;20413;-75
2023/07/12 04:16:50;;;;;;;9.80;5.10;;;;;;;25.75;50.14;101149.41;6304424;22;20330;-75
2023/07/12 04:19:16;;;;;;;12.80;4.93;;;;;;;25.91;49.79;101138.63;6304458;22;20338;-76
2023/07/12 04:21:42;;;;;;;11.67;5.40;;;;;;;26.11;49.48;101144.22;6304556;22;20389;-76
2023/07/12 04:24:08;;;;;;;10.57;5.35;;;;;;;26.23;49.05;101146.72;6305117;22;20353;-76
2023/07/12 04:26:33;;;;;;;11.30;5.50;;;;;;;26.33;48.65;101135.09;6305345;22;20334;-76
2023/07/12 04:29:00;;;;;;;12.52;5.18;;;;;;;26.50;48.13;101141.13;6304226;22;20337;-77
2023/07/12 04:31:26;;;;;;;10.57;5.30;;;;;;;26.59;47.91;101136.00;6307367;22;20409;-75
2023/07/12 04:33:51;;;;;;;10.33;5.50;;;;;;;26.67;47.75;101138.22;6305531;22;20695;-75
2023/07/12 04:36:18;;;;;;;11.77;5.72;;;;;;;26.83;47.87;101143.69;6304198;22;20330;-76
2023/07/12 04:38:44;;;;;;;14.25;5.70;;;;;;;27.08;47.52;101146.47;6304250;22;20417;-76
2023/07/12 04:41:09;;;;;;;15.07;5.63;;;;;;;27.16;47.25;101141.59;6304120;22;20373;-76
2023/07/12 04:43:35;;;;;;;14.80;5.93;;;;;;;27.32;47.10;101156.06;6277216;22;20666;-76
2023/07/12 04:46:00;;;;;;;12.90;5.13;;;;;;;27.43;47.63;101155.78;6303965;22;20349;-76
2023/07/12 04:48:26;;;;;;;11.13;5.60;;;;;;;27.57;47.99;101158.78;6304170;22;20349;-76
2023/07/12 04:50:54;;;;;;;12.82;5.47;;;;;;;27.67;47.74;101160.66;6303870;22;20335;-75
2023/07/12 04:53:21;;;;;;;12.88;5.50;;;;;;;27.64;47.91;101155.75;6304155;22;20341;-75
2023/07/12 04:55:47;;;;;;;11.93;5.72;;;;;;;27.82;47.55;101162.53;6304066;22;20421;-76
2023/07/12 04:58:13;;;;;;;11.75;5.35;;;;;;;27.91;47.29;101173.72;6303870;22;20361;-76
2023/07/12 05:00:39;;;;;;;13.17;5.67;;;;;;;28.03;47.16;101171.53;6276888;22;20346;-75
2023/07/12 05:03:05;;;;;;;10.90;5.43;;;;;;;28.12;46.82;101175.31;6304011;22;20431;-75
2023/07/12 05:05:30;;;;;;;10.57;5.53;;;;;;;28.29;46.16;101176.91;6277238;22;20790;-76
2023/07/12 05:07:56;;;;;;;11.80;5.70;;;;;;;28.47;45.53;101175.47;6304378;22;20341;-76
2023/07/12 05:10:22;;;;;;;11.93;5.60;;;;;;;28.59;45.69;101163.19;6304679;22;20334;-76
2023/07/12 05:12:47;;;;;;;10.82;5.60;;;;;;;28.63;45.56;101177.09;6306236;22;20341;-76
2023/07/12 05:15:13;;;;;;;12.45;5.30;;;;;;;28.64;45.24;101178.69;6305839;22;20383;-75
2023/07/12 05:17:39;;;;;;;10.23;5.23;;;;;;;28.82;44.44;101181.88;6306072;22;20383;-75
2023/07/12 05:20:08;;;;;;;11.45;5.13;;;;;;;29.02;43.82;101176.28;6306509;22;20342;-76
2023/07/12 05:22:33;;;;;;;12.43;5.50;;;;;;;28.91;44.27;101191.13;6306338;22;20450;-76
2023/07/12 05:24:59;;;;;;;10.00;5.17;;;;;;;28.90;43.84;101190.31;6306247;22;20341;-77
2023/07/12 05:27:25;;;;;;;8.95;5.22;;;;;;;28.73;44.18;101182.47;6306110;22;20452;-77
2023/07/12 05:29:50;;;;;;;10.02;5.30;;;;;;;28.79;44.46;101177.78;6305959;22;20464;-77
2023/07/12 05:32:16;;;;;;;15.57;6.23;;;;;;;28.83;44.83;101178.03;6306223;22;20349;-76
2023/07/12 05:34:41;;;;;;;11.15;6.57;;;;;;;28.93;44.91;101184.25;6306753;22;20399;-76
2023/07/12 05:37:08;;;;;;;13.40;7.00;;;;;;;29.15;44.36;101192.09;6307308;22;20396;-76
2023/07/12 05:39:34;;;;;;;15.55;7.10;;;;;;;29.21;44.05;101181.09;6306308;22;20342;-76
2023/07/12 05:41:59;;;;;;;15.50;7.60;;;;;;;29.35;44.29;101193.84;6306117;22;20357;-76
2023/07/12 05:44:25;;;;;;;13.85;7.65;;;;;;;29.28;44.40;101196.09;6305992;22;20342;-76
2023/07/12 05:46:50;;;;;;;12.52;7.25;;;;;;;29.16;44.47;101198.34;6306004;22;20341;-76
2023/07/12 05:49:16;;;;;;;16.05;7.60;;;;;;;29.22;44.44;101201.84;6306197;22;20797;-77
2023/07/12 05:51:42;;;;;;;12.10;6.80;;;;;;;29.47;44.56;101204.38;6279074;22;20330;-77
2023/07/12 05:54:07;;;;;;;12.20;7.40;;;;;;;29.58;44.95;101205.13;6305837;22;20391;-76
2023/07/12 05:56:33;;;;;;;11.50;7.00;;;;;;;29.60;44.90;101218.50;6306267;22;20374;-76
2023/07/12 05:58:58;;;;;;;15.63;7.50;;;;;;;29.75;45.27;101221.16;6305479;22;20344;-76
2023/07/12 06:01:26;;;;;;;12.23;7.40;;;;;;;29.84;45.17;101213.16;6306003;22;20927;-76
2023/07/12 06:03:52;;;;;;;11.23;7.07;;;;;;;29.94;45.13;101229.44;6307295;22;20342;-76
2023/07/12 06:06:19;;;;;;;9.65;7.07;;;;;;;30.07;44.65;101225.19;6280232;22;20778;-76
2023/07/12 06:08:45;;;;;;;14.15;7.38;;;;;;;29.98;44.83;101222.31;6304283;22;20440;-75
2023/07/12 06:11:10;;;;;;;11.40;7.18;;;;;;;29.97;44.47;101219.84;6278199;22;20384;-75
2023/07/12 06:13:36;;;;;;;11.97;7.57;;;;;;;30.15;44.31;101223.78;6306154;22;20721;-76
2023/07/12 06:16:02;;;;;;;14.40;7.13;;;;;;;30.16;43.70;101222.66;6305188;22;20338;-76
2023/07/12 06:18:30;;;;;;;12.88;7.72;;;;;;;30.18;43.99;101221.28;6306137;22;20767;-75
2023/07/12 06:20:59;;;;;;;11.77;7.55;;;;;;;30.30;43.77;101229.88;6278756;22;20407;-76
2023/07/12 06:23:26;;;;;;;12.05;7.57;;;;;;;30.31;42.91;101228.78;6304050;22;20365;-77
2023/07/12 06:25:57;;;;;;;11.07;7.23;;;;;;;30.45;42.85;101234.41;6279375;22;20865;-76
2023/07/12 06:28:23;;;;;;;10.57;6.80;;;;;;;30.43;42.91;101227.56;6305632;22;20787;-76
2023/07/12 06:30:48;;;;;;;11.23;7.38;;;;;;;30.70;42.87;101235.16;6306190;22;20341;-76
2023/07/12 06:33:13;;;;;;;11.40;7.17;;;;;;;30.77;43.16;101227.41;6305939;22;20770;-76
2023/07/12 06:35:40;;;;;;;12.20;7.40;;;;;;;30.81;43.04;101225.75;6306665;22;20342;-76
2023/07/12 06:38:05;;;;;;;16.95;8.30;;;;;;;30.83;43.11;101218.03;6305652;22;20737;-77
2023/07/12 06:40:31;;;;;;;12.43;7.70;;;;;;;30.95;42.93;101219.56;6306059;22;20426;-75
2023/07/12 06:42:57;;;;;;;11.10;7.63;;;;;;;31.10;42.68;101222.09;6305065;22;20962;-76
2023/07/12 06:45:23;;;;;;;13.57;7.85;;;;;;;31.13;42.42;101218.72;6306349;22;20417;-76
2023/07/12 06:47:48;;;;;;;20.88;8.20;;;;;;;31.23;42.56;101220.53;6305726;22;20381;-76
2023/07/12 06:50:14;;;;;;;14.10;7.90;;;;;;;31.41;41.94;101221.59;6306284;22;20345;-76
2023/07/12 06:52:39;;;;;;;13.48;7.80;;;;;;;31.31;42.37;101216.28;6305894;22;20360;-76
2023/07/12 06:55:05;;;;;;;13.82;7.65;;;;;;;31.38;41.65;101216.72;6279646;22;20338;-77
2023/07/12 06:57:32;;;;;;;13.30;7.18;;;;;;;31.60;41.52;101213.38;6304734;22;20376;-76
2023/07/12 06:59:57;;;;;;;13.32;7.22;;;;;;;31.65;40.87;101212.47;6305550;22;20766;-76
2023/07/12 07:02:23;;;;;;;9.43;6.90;;;;;;;31.69;40.68;101205.28;6305804;22;20394;-76
2023/07/12 07:04:48;;;;;;;15.53;7.70;;;;;;;31.71;40.79;101206.63;6306115;22;20663;-76
2023/07/12 07:07:14;;;;;;;13.20;7.53;;;;;;;31.86;40.64;101196.50;6278433;22;20348;-77
2023/07/12 07:09:39;;;;;;;16.17;7.30;;;;;;;31.88;40.62;101192.31;6305532;22;20341;-76
2023/07/12 07:12:06;;;;;;;18.35;7.45;;;;;;;32.09;40.37;101201.00;6305195;22;20334;-76
2023/07/12 07:14:32;;;;;;;14.20;7.53;;;;;;;32.25;39.34;101195.22;6305400;22;20409;-76
2023/07/12 07:16:58;;;;;;;11.30;7.17;;;;;;;32.33;38.94;101198.06;6305766;22;20627;-76
2023/07/12 07:19:23;;;;;;;10.07;6.85;;;;;;;32.44;39.00;101208.84;6305269;22;20749;-76
2023/07/12 07:21:50;;;;;;;11.52;7.03;;;;;;;32.59;38.87;101214.00;6306003;22;20362;-76
2023/07/12 07:24:16;;;;;;;10.23;6.90;;;;;;;32.66;38.41;101222.66;6305365;22;20441;-76
2023/07/12 07:26:43;;;;;;;13.65;7.25;;;;;;;32.82;37.99;101222.31;6278229;22;20342;-76
2023/07/12 07:29:08;;;;;;;15.70;7.63;;;;;;;32.93;37.92;101220.97;6305267;22;20338;-75
2023/07/12 07:31:34;;;;;;;10.37;6.73;;;;;;;33.00;37.83;101223.31;6305299;22;20368;-75
2023/07/12 07:33:59;;;;;;;12.57;6.80;;;;;;;33.24;37.15;101217.53;6278003;22;20341;-76
2023/07/12 07:36:25;;;;;;;12.93;7.23;;;;;;;33.21;37.00;101213.50;6305190;22;20741;-76
2023/07/12 07:38:50;;;;;;;13.30;6.80;;;;;;;32.95;36.96;101221.47;6305786;22;20338;-76
2023/07/12 07:41:16;;;;;;;10.73;6.57;;;;;;;32.73;36.91;101220.28;6305290;22;20778;-77
2023/07/12 07:43:44;;;;;;;12.33;6.43;;;;;;;32.98;37.14;101217.31;6305181;22;20352;-76
2023/07/12 07:46:10;;;;;;;11.45;6.50;;;;;;;33.29;36.54;101226.47;6279122;22;21067;-76
2023/07/12 07:48:36;;;;;;;13.88;6.70;;;;;;;33.24;36.67;101221.13;6305331;22;20341;-75
2023/07/12 07:51:02;;;;;;;10.95;6.85;;;;;;;33.33;37.20;101229.41;6305085;22;20375;-75
2023/07/12 07:53:27;;;;;;;16.08;7.55;;;;;;;33.43;36.64;101218.16;6305425;22;20342;-77
2023/07/12 07:55:53;;;;;;;10.30;6.27;;;;;;;33.65;36.47;101222.03;6305123;22;20389;-75
2023/07/12 07:58:20;;;;;;;12.83;6.67;;;;;;;33.79;36.41;101213.72;6305162;22;20837;-76
2023/07/12 08:00:46;;;;;;;16.38;7.40;;;;;;;33.85;36.14;101217.97;6279057;22;20374;-76
2023/07/12 08:03:11;;;;;;;13.67;6.63;;;;;;;33.77;35.92;101214.03;6305492;22;20362;-76
2023/07/12 08:05:38;;;;;;;12.20;6.70;;;;;;;33.78;35.92;101214.84;6305044;22;20349;-76
2023/07/12 08:08:04;;;;;;;12.93;6.63;;;;;;;33.78;35.92;101204.69;6305357;22;20334;-76
2023/07/12 08:10:30;;;;;;;12.07;6.32;;;;;;;33.88;36.13;101206.34;6278688;22;20372;-77
2023/07/12 08:12:56;;;;;;;12.63;6.35;;;;;;;33.95;36.41;101214.94;6306818;22;20378;-77
2023/07/12 08:15:22;;;;;;;14.68;6.82;;;;;;;34.10;35.76;101219.22;6306033;22;20342;-75
2023/07/12 08:17:48;;;;;;;15.13;6.90;;;;;;;34.23;35.46;101225.75;6305048;22;20415;-76
2023/07/12 08:20:13;;;;;;;10.77;6.30;;;;;;;34.27;35.13;101222.06;6305190;22;20411;-75
2023/07/12 08:22:39;;;;;;;10.97;6.60;;;;;;;34.40;34.69;101230.53;6304876;22;20686;-77
2023/07/12 08:25:05;;;;;;;12.10;7.07;;;;;;;34.36;34.98;101230.34;6304854;22;20725;-76
2023/07/12 08:27:31;;;;;;;10.18;6.72;;;;;;;34.44;34.68;101226.00;6279393;22;20345;-76
2023/07/12 08:30:00;;;;;;;10.07;6.33;;;;;;;34.58;34.37;101221.16;6308394;22;21001;-77
2023/07/12 08:32:30;;;;;;;8.20;6.25;;;;;;;34.55;34.59;101230.06;6306210;22;20768;-77
2023/07/12 08:34:57;;;;;;;14.63;6.63;;;;;;;34.61;34.36;101222.47;6306149;22;20345;-76
2023/07/12 08:37:24;;;;;;;13.37;6.83;;;;;;;34.54;34.60;101211.94;6304962;22;20357;-75
2023/07/12 08:39:49;;;;;;;15.43;6.88;;;;;;;34.62;34.42;101210.31;6305209;22;20338;-76
2023/07/12 08:42:20;;;;;;;15.87;7.47;;;;;;;34.67;34.72;101202.72;6304574;22;20465;-75
2023/07/12 08:44:46;;;;;;;14.30;7.40;;;;;;;34.70;34.53;101211.50;6305515;22;20338;-76
2023/07/12 08:47:37;;;;;;;14.00;7.35;;;;;;;34.87;34.41;101214.28;6306732;22;20869;-77
2023/07/12 08:50:15;;;;;;;13.07;7.20;;;;;;;34.86;34.43;101207.13;6307135;22;20348;-75
2023/07/12 08:52:44;;;;;;;15.43;7.32;;;;;;;34.77;34.52;101198.88;6255534;22;20346;-75
2023/07/12 08:55:20;;;;;;;11.10;6.73;;;;;;;34.78;34.78;101206.00;6279746;22;20338;-75
2023/07/12 08:58:03;;;;;;;13.05;7.68;;;;;;;34.85;34.77;101211.03;6306333;22;20358;-75
2023/07/12 09:00:32;;;;;;;11.60;7.20;;;;;;;35.03;34.43;101206.34;6309574;22;20434;-75
2023/07/12 09:02:58;;;;;;;14.00;7.07;;;;;;;35.05;34.28;101204.06;6307413;22;20357;-77
2023/07/12 09:05:24;;;;;;;11.50;7.10;;;;;;;35.03;34.21;101201.63;6307970;22;20338;-75
2023/07/12 09:08:17;;;;;;;12.70;7.20;;;;;;;35.15;34.22;101200.16;6279256;22;20409;-75
2023/07/12 09:10:56;;;;;;;11.98;7.43;;;;;;;35.38;34.54;101193.38;6302162;22;20799;-77
2023/07/12 09:13:30;;;;;;;12.98;6.88;;;;;;;35.53;34.09;101197.56;6307546;22;20330;-75
2023/07/12 09:15:56;;;;;;;12.80;7.78;;;;;;;35.33;33.97;101189.97;6307158;22;20330;-76
2023/07/12 09:18:36;;;;;;;10.10;7.38;;;;;;;35.19;34.11;101190.97;6307162;22;20420;-76
2023/07/12 09:21:12;;;;;;;11.52;7.57;;;;;;;35.22;34.16;101189.50;6307039;22;20372;-76
2023/07/12 09:23:40;;;;;;;11.57;7.57;;;;;;;35.35;34.27;101184.97;6307996;22;20353;-76
2023/07/12 09:26:23;;;;;;;13.20;9.37;;;;;;;35.35;33.67;101182.19;6306596;22;20391;-76
2023/07/12 09:28:49;;;;;;;13.43;7.47;;;;;;;35.36;34.10;101176.34;6307565;22;20394;-76
2023/07/12 09:31:21;;;;;;;11.48;7.30;;;;;;;35.42;33.62;101177.00;6307489;22;20624;-76
2023/07/12 09:33:54;;;;;;;14.95;7.53;;;;;;;35.39;33.41;101172.13;6306448;22;20361;-75
2023/07/12 09:36:20;;;;;;;18.00;7.72;;;;;;;35.46;33.05;101177.16;6304825;22;20345;-75
2023/07/12 09:38:46;;;;;;;16.08;7.47;;;;;;;35.49;33.17;101174.53;6307035;22;20330;-76
2023/07/12 09:41:20;;;;;;;13.57;7.67;;;;;;;35.51;32.89;101165.91;6306763;22;20341;-77
2023/07/12 09:43:53;;;;;;;11.52;7.38;;;;;;;35.65;33.15;101165.72;6306014;22;20338;-76
2023/07/12 09:46:18;;;;;;;13.17;7.37;;;;;;;35.73;33.07;101160.22;6304148;22;20686;-75
2023/07/12 09:48:57;;;;;;;14.37;7.23;;;;;;;35.77;32.90;101161.16;6304901;22;20767;-76
2023/07/12 09:51:41;;;;;;;17.95;7.10;;;;;;;35.75;32.97;101159.88;6304606;22;20334;-76
2023/07/12 09:54:15;;;;;;;14.88;7.10;;;;;;;35.76;32.39;101144.94;6277228;22;20350;-76
2023/07/12 09:57:08;;;;;;;15.02;7.80;;;;;;;35.87;32.60;101142.63;6305480;22;20366;-76
2023/07/12 09:59:42;;;;;;;11.73;6.95;;;;;;;35.95;32.59;101147.31;6306431;22;20369;-77
2023/07/12 10:02:19;;;;;;;13.50;7.13;;;;;;;35.90;32.08;101148.28;6307015;22;20358;-76
2023/07/12 10:04:45;;;;;;;10.60;6.97;;;;;;;35.98;32.19;101144.69;6307608;22;20365;-76
2023/07/12 10:07:26;;;;;;;11.17;6.80;;;;;;;35.98;31.74;101141.94;6307685;22;20330;-75
2023/07/12 10:09:53;;;;;;;13.88;6.97;;;;;;;35.87;31.55;101132.41;6307017;22;20741;-76
2023/07/12 10:12:44;;;;;;;15.27;7.45;;;;;;;35.93;31.47;101133.03;6306202;22;20337;-75
2023/07/12 10:15:13;;;;;;;14.57;7.70;;;;;;;36.06;31.53;101126.44;6306007;22;20453;-75
2023/07/12 10:17:41;;;;;;;9.95;6.40;;;;;;;36.09;30.91;101134.06;6306728;22;20770;-75
2023/07/12 10:20:17;;;;;;;11.20;6.20;;;;;;;36.13;30.90;101131.47;6307040;22;20338;-76
2023/07/12 10:22:44;;;;;;;14.75;6.63;;;;;;;36.14;30.68;101127.53;6279148;22;20466;-76
2023/07/12 10:25:26;;;;;;;10.15;6.40;;;;;;;36.24;30.70;101127.19;6306501;22;20352;-77
2023/07/12 10:28:19;;;;;;;9.33;6.30;;;;;;;36.39;31.00;101119.47;6309141;22;20472;-75
2023/07/12 10:30:48;;;;;;;14.43;6.80;;;;;;;36.48;31.00;101115.50;6292193;22;20381;-75
2023/07/12 10:33:24;;;;;;;13.27;6.85;;;;;;;36.50;30.52;101113.22;6307412;22;20412;-76
2023/07/12 10:36:07;;;;;;;16.40;6.60;;;;;;;36.57;30.04;101095.28;6306781;22;20346;-75
2023/07/12 10:38:32;;;;;;;11.17;6.63;;;;;;;36.62;30.53;101090.34;6307240;22;20353;-76
2023/07/12 10:41:05;;;;;;;9.93;6.20;;;;;;;36.52;30.30;101088.81;6306660;22;20349;-76
2023/07/12 10:43:35;;;;;;;10.85;6.05;;;;;;;36.59;29.82;101088.28;6308872;22;20822;-75
2023/07/12 10:46:06;;;;;;;9.87;6.27;;;;;;;36.63;30.25;101086.47;6308224;22;20342;-76
2023/07/12 10:48:32;;;;;;;11.03;6.30;;;;;;;36.74;30.13;101067.53;6307049;22;20806;-76
2023/07/12 10:51:38;;;;;;;13.20;6.20;;;;;;;36.89;30.32;101066.09;6282334;22;20349;-76
2023/07/12 10:54:05;;;;;;;11.63;6.55;;;;;;;37.06;29.55;101063.16;6288441;22;20350;-77
2023/07/12 10:56:37;;;;;;;11.00;5.70;;;;;;;37.12;29.06;101066.50;6306993;22;20370;-77
2023/07/12 10:59:32;;;;;;;8.52;5.20;;;;;;;37.17;28.27;101065.47;6279357;22;20373;-75
2023/07/12 11:02:03;;;;;;;10.18;5.72;;;;;;;37.23;27.88;101064.13;6305742;22;20357;-75
2023/07/12 11:04:32;;;;;;;13.93;5.95;;;;;;;37.18;28.32;101045.00;6305893;22;20678;-76
2023/07/12 11:06:59;;;;;;;12.98;5.97;;;;;;;37.33;28.92;101036.03;6306882;22;20330;-76
2023/07/12 11:09:49;;;;;;;8.98;5.80;;;;;;;37.33;28.56;101046.28;6307539;22;20344;-75
2023/07/12 11:12:26;;;;;;;12.32;6.03;;;;;;;37.28;28.97;101047.31;6220473;22;20369;-75
2023/07/12 11:14:53;;;;;;;9.15;5.57;;;;;;;37.38;29.19;101041.31;6306048;22;20329;-75
2023/07/12 11:17:27;;;;;;;10.60;5.30;;;;;;;37.49;28.97;101041.66;6305692;22;20409;-77
2023/07/12 11:20:07;;;;;;;11.73;5.85;;;;;;;37.63;28.79;101044.13;6306643;22;20334;-75
2023/07/12 11:22:52;;;;;;;10.05;5.60;;;;;;;37.60;28.91;101034.53;6306392;22;20403;-75
2023/07/12 11:25:22;;;;;;;12.57;6.10;;;;;;;37.65;28.95;101036.28;6305974;22;20353;-76